Main page
METAR-TAF:

METAR-TAF

Airports :

Bilbao Airport

Bilbao, Spain

latitude: 43-18N, longitude: 002-56W, elevation: 42 m

Current weather observation

The report was made 33 minutes ago, at 01:00 UTC
Wind 7 kt from the Southeast, varying between East/Southeast and South
Temperature 13°C
Humidity 67%
Pressure 1028 hPa
Visibility 10 km or more
no clouds below 1500 m and no cumulonimbus

METAR: LEBB 030100Z AUTO 14007KT 110V170 CAVOK 13/07 Q1028

Time: 02:33 (01:33 UTC)

Forecast

The report was made 2 hours and 33 minutes ago, at 23:00 UTC
Forecast valid from 03 at 00 UTC to 03 at 24 UTC
Wind 4 kt from variable directions
Visibility 10 km or more
no clouds below 1500 m and no cumulonimbus
Temporary
from 03 at 06 UTC to 03 at 13 UTC
Wind 8 kt from the South

TAF: LEBB 022300Z 0300/0324 VRB04KT CAVOK TX20/0315Z TN07/0307Z TEMPO 0306/0313 18008KT

Weather observations and forecasts of more than 4000 airports (METAR and TAF reports).

The available stations are represented by yellow and red dots on the map.

Hover mouse over dot to see the name of the station.

Then click to see weather observations and forecasts.

To change the map : click on the green buttons with a black cross to zoom in, on the green button with a dash to zoom out, or on the green arrows for adjacent maps.


METAR-TAF: